N1LMA Westerly RI US current weather conditions

sailwx.info

Wind from 342 at 1 knots gusting 2

Air temperature 30.6° C
Dewpoint 18.3° C

Last reported at 2020-Aug-10 15:10 UTC.
Time now 2020-Aug-10 15:34 UTC

Location: N 41°24' W 071°49'.
View on Google Maps.

See reports from other nearby stations

  
Tides and Currents Weather Stations Pressure Air Temp Water Temp Dewpoint Dewpoint Depression Visibility Wind Speed Wind Dir Waves Ship Positions
date/time (UTC)wind fromknots sea level pressurealtimeterstation pressurevisibilityair tempwater tempwave heightnotes
2020-Aug-10 15:10 342 1 gusting 2 30.6
2020-Aug-10 15:05 169 1 gusting 4 29.4
2020-Aug-10 15:00 228 0 gusting 5 28.9
2020-Aug-10 14:55 280 1 gusting 5 30.0
2020-Aug-10 14:50 216 0 gusting 4 30.0
2020-Aug-10 14:45 290 1 gusting 5 30.0
2020-Aug-10 14:40 236 1 gusting 5 29.4
2020-Aug-10 14:35 308 0 gusting 5 29.4
2020-Aug-10 14:30 226 0 gusting 4 29.4
2020-Aug-10 14:25 176 30.0
2020-Aug-10 14:20 208 2 gusting 4 29.4
2020-Aug-10 14:15 268 2 gusting 6 28.3
2020-Aug-10 14:10 241 0 gusting 4 27.8
2020-Aug-10 14:05 281 1 gusting 5 27.8
2020-Aug-10 14:00 325 1 gusting 4 28.3
2020-Aug-10 13:55 277 1 gusting 5 28.9
2020-Aug-10 13:50 228 0 gusting 2 27.8
2020-Aug-10 13:45 261 1 gusting 4 27.8
2020-Aug-10 13:40 257 0 gusting 2 26.1
2020-Aug-10 13:35 010 24.4
2020-Aug-10 13:30 215 0 gusting 5 25.0
2020-Aug-10 13:25 234 2 gusting 5 25.0
2020-Aug-10 13:20 204 1 gusting 2 26.7
2020-Aug-10 13:15 220 25.6
2020-Aug-10 13:10 248 1 gusting 2 25.0
2020-Aug-10 13:05 258 23.3
2020-Aug-10 13:00 212 0 gusting 4 22.8
2020-Aug-10 12:55 231 22.8
2020-Aug-10 12:50 220 0 gusting 1 22.2
2020-Aug-10 12:45 216 0 gusting 1 22.8
2020-Aug-10 12:40 250 1 gusting 4 22.2
2020-Aug-10 12:35 197 0 gusting 2 21.7
2020-Aug-10 12:30 245 1 gusting 4 21.7
2020-Aug-10 12:25 257 21.1
2020-Aug-10 12:20 263 21.1
2020-Aug-10 12:15 263 21.1
2020-Aug-10 12:10 263 21.1
2020-Aug-10 12:05 263 21.1
2020-Aug-10 12:00 263 21.1
2020-Aug-10 11:55 263 21.1
2020-Aug-10 11:50 263 21.1
2020-Aug-10 11:45 263 20.6
2020-Aug-10 11:40 263 20.6
2020-Aug-10 11:35 263 20.6
2020-Aug-10 11:30 263 20.0
2020-Aug-10 11:25 263 20.0
2020-Aug-10 11:20 263 20.0
2020-Aug-10 11:10 263 19.4
2020-Aug-10 11:05 263 19.4
2020-Aug-10 11:00 263 19.4
2020-Aug-10 10:55 263 19.4
2020-Aug-10 10:50 263 19.4
2020-Aug-10 10:45 263 19.4
2020-Aug-10 10:40 263 18.9
2020-Aug-10 10:35 263 18.9
2020-Aug-10 10:30 263 18.9
2020-Aug-10 10:25 263 18.9
2020-Aug-10 10:20 263 18.9
2020-Aug-10 10:15 263 18.9
2020-Aug-10 10:10 263 18.9
2020-Aug-10 10:05 263 18.9
2020-Aug-10 10:00 263 18.9
2020-Aug-10 09:55 263 18.9
2020-Aug-10 09:50 263 18.9
2020-Aug-10 09:45 263 18.9
2020-Aug-10 09:40 263 18.9
2020-Aug-10 09:35 263 18.9
2020-Aug-10 09:30 263 18.9
2020-Aug-10 09:25 263 18.9
2020-Aug-10 09:20 263 18.9
2020-Aug-10 09:15 263 18.9
2020-Aug-10 09:10 263 18.9
2020-Aug-10 09:05 263 19.4
2020-Aug-10 09:00 263 18.9
2020-Aug-10 08:55 263 18.9
2020-Aug-10 08:50 263 18.9
2020-Aug-10 08:45 263 18.9
2020-Aug-10 08:40 263 18.9
2020-Aug-10 08:35 263 18.9
2020-Aug-10 08:30 263 18.9
2020-Aug-10 08:25 263 18.9
2020-Aug-10 08:20 263 18.9
2020-Aug-10 08:15 263 18.9
2020-Aug-10 08:10 263 18.9
2020-Aug-10 08:05 263 18.3
2020-Aug-10 08:00 263 18.3
2020-Aug-10 07:55 263 18.3
2020-Aug-10 07:50 263 18.3
2020-Aug-10 07:45 263 18.3
2020-Aug-10 07:40 263 18.3
2020-Aug-10 07:35 263 18.3
2020-Aug-10 07:30 263 17.8
2020-Aug-10 07:25 263 18.3
2020-Aug-10 07:20 263 17.8
2020-Aug-10 07:15 263 17.8
2020-Aug-10 07:10 263 18.3
2020-Aug-10 07:05 263 18.3
2020-Aug-10 07:00 263 18.3
2020-Aug-10 06:55 263 18.3
2020-Aug-10 06:50 263 18.3
2020-Aug-10 06:45 263 18.3
2020-Aug-10 06:40 263 18.9
2020-Aug-10 06:35 263 18.9
2020-Aug-10 06:30 263 18.9
2020-Aug-10 06:25 263 18.9
2020-Aug-10 06:20 263 17.8
2020-Aug-10 06:15 263 18.3
2020-Aug-10 06:10 263 18.3
2020-Aug-10 06:05 263 18.3
2020-Aug-10 06:00 263 18.9
2020-Aug-10 05:55 263 18.9
2020-Aug-10 05:50 263 18.9
2020-Aug-10 05:45 263 18.9
2020-Aug-10 05:40 263 18.9
2020-Aug-10 05:35 263 18.3
2020-Aug-10 05:30 263 18.3
2020-Aug-10 05:25 263 18.9
2020-Aug-10 05:20 263 18.9
2020-Aug-10 05:15 263 19.4
2020-Aug-10 05:10 263 19.4
2020-Aug-10 05:05 263 19.4
2020-Aug-10 04:55 263 19.4
2020-Aug-10 04:50 263 19.4
2020-Aug-10 04:45 263 20.0
2020-Aug-10 04:40 263 20.0
2020-Aug-10 04:35 263 20.0
2020-Aug-10 04:30 263 20.0
2020-Aug-10 04:25 263 20.0
2020-Aug-10 04:20 263 20.0
2020-Aug-10 04:15 263 20.0
2020-Aug-10 04:10 263 20.0
2020-Aug-10 04:05 263 20.0
2020-Aug-10 04:00 263 20.0
2020-Aug-10 03:55 263 20.0
2020-Aug-10 03:50 263 20.0
2020-Aug-10 03:45 263 20.6
2020-Aug-10 03:40 263 20.6
2020-Aug-10 03:35 263 20.6
2020-Aug-10 03:30 263 20.0
2020-Aug-10 03:25 263 20.0
2020-Aug-10 03:20 263 20.6
2020-Aug-10 03:15 263 20.6
2020-Aug-10 03:10 263 21.1
2020-Aug-10 03:05 263 21.7
2020-Aug-10 03:00 263 21.7
2020-Aug-10 02:55 263 21.7
2020-Aug-10 02:45 263 22.2
2020-Aug-10 02:40 263 22.2
2020-Aug-10 02:35 263 21.7
2020-Aug-10 02:30 263 21.7
2020-Aug-10 02:25 263 21.7
2020-Aug-10 02:20 263 21.7
2020-Aug-10 02:15 263 21.7
2020-Aug-10 02:10 241 22.2
2020-Aug-10 02:05 224 22.2
2020-Aug-10 02:00 224 0 gusting 2 22.2
2020-Aug-10 01:55 217 22.2
2020-Aug-10 01:50 259 22.2
2020-Aug-10 01:45 252 0 gusting 1 22.2
2020-Aug-10 01:40 200 0 gusting 1 22.2
2020-Aug-10 01:35 267 1 gusting 5 22.2
2020-Aug-10 01:30 264 0 gusting 2 22.2
2020-Aug-10 01:25 249 0 gusting 1 22.2
2020-Aug-10 01:20 271 21.1
2020-Aug-10 01:15 268 0 gusting 4 21.7
2020-Aug-10 01:10 254 1 gusting 4 21.1
2020-Aug-10 01:05 256 0 gusting 2 21.7
2020-Aug-10 01:00 255 0 gusting 2 21.7
2020-Aug-10 00:55 240 0 gusting 1 20.6
2020-Aug-10 00:50 254 0 gusting 2 18.9
2020-Aug-10 00:40 252 0 gusting 2 17.8
2020-Aug-10 00:35 262 1 gusting 2 18.9
2020-Aug-10 00:30 271 0 gusting 1 20.0
2020-Aug-10 00:25 261 2 gusting 5 19.4
2020-Aug-10 00:20 258 1 gusting 5 21.7
2020-Aug-10 00:15 248 0 gusting 2 21.1
2020-Aug-10 00:10 240 1 gusting 5 21.7
2020-Aug-10 00:05 247 0 gusting 2 22.2
2020-Aug-10 00:00 238 1 gusting 2 22.2
2020-Aug-09 23:55 259 0 gusting 4 22.8
2020-Aug-09 23:50 258 1 gusting 5 23.3
2020-Aug-09 23:45 248 2 gusting 4 21.1
2020-Aug-09 23:40 260 1 gusting 6 23.3
2020-Aug-09 23:35 257 2 gusting 5 22.2
2020-Aug-09 23:30 260 1 gusting 5 22.2
2020-Aug-09 23:25 271 2 gusting 6 22.2
2020-Aug-09 23:20 262 2 gusting 7 23.3
2020-Aug-09 23:10 263 1 gusting 5 26.1
2020-Aug-09 23:05 253 2 gusting 5 26.1
2020-Aug-09 22:55 254 2 gusting 5 26.7
2020-Aug-09 22:50 220 1 gusting 4 26.7
2020-Aug-09 22:45 269 3 gusting 6 27.2
2020-Aug-09 22:40 266 2 gusting 5 27.2
2020-Aug-09 22:35 248 4 gusting 5 27.2
2020-Aug-09 22:30 251 1 gusting 6 27.2
2020-Aug-09 22:25 249 2 gusting 6 27.8
2020-Aug-09 22:20 271 2 gusting 6 27.8
2020-Aug-09 22:15 239 2 gusting 7 27.8
2020-Aug-09 22:10 247 3 gusting 6 27.2
2020-Aug-09 22:05 273 3 gusting 6 26.7
2020-Aug-09 22:00 258 2 gusting 6 26.7
2020-Aug-09 21:55 253 3 gusting 6 27.2
2020-Aug-09 21:50 264 3 gusting 6 27.2
2020-Aug-09 21:45 250 2 gusting 6 26.7
2020-Aug-09 21:40 258 4 gusting 6 27.2
2020-Aug-09 21:35 266 5 gusting 8 27.2
2020-Aug-09 21:30 268 3 gusting 7 27.2
2020-Aug-09 21:25 271 3 gusting 6 27.2
2020-Aug-09 21:20 262 4 gusting 10 27.8
2020-Aug-09 21:15 268 5 gusting 10 28.3
2020-Aug-09 21:10 264 5 gusting 7 28.3
2020-Aug-09 21:05 253 4 gusting 7 28.9
2020-Aug-09 20:55 254 5 gusting 11 28.9
2020-Aug-09 20:50 268 4 gusting 8 28.9
2020-Aug-09 20:45 255 3 gusting 6 28.9
2020-Aug-09 20:40 265 5 gusting 7 29.4
2020-Aug-09 20:35 272 4 gusting 10 29.4
2020-Aug-09 20:30 266 2 gusting 7 29.4
2020-Aug-09 20:25 269 6 gusting 10 29.4
2020-Aug-09 20:20 264 4 gusting 7 29.4
2020-Aug-09 20:15 261 4 gusting 8 29.4
2020-Aug-09 20:10 252 4 gusting 8 29.4
2020-Aug-09 20:05 253 2 gusting 6 29.4
2020-Aug-09 20:00 263 3 gusting 6 29.4
2020-Aug-09 19:55 271 4 gusting 6 29.4
2020-Aug-09 19:50 255 5 gusting 8 29.4
2020-Aug-09 19:45 267 6 gusting 10 29.4
2020-Aug-09 19:40 259 4 gusting 7 29.4
2020-Aug-09 19:35 256 5 gusting 10 29.4
2020-Aug-09 19:30 257 6 gusting 10 29.4
2020-Aug-09 19:25 252 5 gusting 8 30.0
2020-Aug-09 19:20 265 4 gusting 7 30.0
2020-Aug-09 19:15 239 5 gusting 11 30.0
2020-Aug-09 19:10 264 5 gusting 8 30.6
2020-Aug-09 19:05 260 4 gusting 7 30.6
2020-Aug-09 19:00 272 5 gusting 8 30.6
2020-Aug-09 18:55 261 4 gusting 7 30.6
2020-Aug-09 18:50 269 5 gusting 7 30.6
2020-Aug-09 18:45 249 5 gusting 12 30.6
2020-Aug-09 18:40 257 5 gusting 8 30.6
2020-Aug-09 18:35 254 4 gusting 8 30.6
2020-Aug-09 18:30 271 5 gusting 8 30.6
2020-Aug-09 18:25 257 2 gusting 11 30.0
2020-Aug-09 18:20 268 4 gusting 10 29.4
2020-Aug-09 18:15 274 5 gusting 10 29.4
2020-Aug-09 18:10 264 6 gusting 10 30.0
2020-Aug-09 18:05 272 5 gusting 10 29.4
2020-Aug-09 18:00 254 6 gusting 8 30.0
2020-Aug-09 17:55 264 5 gusting 8 29.4
2020-Aug-09 17:50 267 4 gusting 7 29.4
2020-Aug-09 17:40 265 5 gusting 12 29.4
2020-Aug-09 17:35 253 4 gusting 7 29.4
2020-Aug-09 17:30 269 5 gusting 10 29.4
2020-Aug-09 17:25 252 5 gusting 8 30.0
2020-Aug-09 17:20 254 4 gusting 10 30.0
2020-Aug-09 17:15 255 4 gusting 7 30.0
2020-Aug-09 17:10 257 4 gusting 6 30.0
2020-Aug-09 17:05 240 4 gusting 7 30.0
2020-Aug-09 16:55 276 4 gusting 7 30.0
2020-Aug-09 16:50 251 3 gusting 10 29.4
2020-Aug-09 16:45 258 4 gusting 7 29.4
2020-Aug-09 16:40 244 5 gusting 10 27.2
2020-Aug-09 16:35 261 4 gusting 7 27.8
2020-Aug-09 16:30 255 4 gusting 7 27.8
2020-Aug-09 16:25 260 4 gusting 7 27.8
2020-Aug-09 16:20 252 4 gusting 7 26.7
2020-Aug-09 16:15 256 3 gusting 6 27.2
2020-Aug-09 16:10 244 4 gusting 6 27.2
2020-Aug-09 16:05 258 3 gusting 6 26.1
2020-Aug-09 16:00 245 2 gusting 5 27.8
2020-Aug-09 15:55 245 3 gusting 6 26.1
2020-Aug-09 15:50 263 4 gusting 6 26.1
2020-Aug-09 15:45 265 4 gusting 6 30.0
2020-Aug-09 15:40 260 0 gusting 5 30.6
2020-Aug-09 15:35 248 2 gusting 5 30.0
2020-Aug-09 15:30 227 1 gusting 5 28.9
2020-Aug-09 15:25 250 2 gusting 5 28.9
2020-Aug-09 15:20 254 0 gusting 5 28.9
2020-Aug-09 15:15 240 1 gusting 6 29.4
2020-Aug-09 15:10 231 2 gusting 6 29.4
2020-Aug-09 15:05 243 3 gusting 6 30.0
2020-Aug-09 15:00 261 2 gusting 5 29.4
2020-Aug-09 14:55 266 1 gusting 6 29.4
2020-Aug-09 14:50 233 1 gusting 5 29.4
2020-Aug-09 14:45 244 2 gusting 6 28.9
2020-Aug-09 14:40 246 1 gusting 6 28.9
2020-Aug-09 14:35 249 2 gusting 5 28.3
2020-Aug-09 14:30 261 2 gusting 6 28.3
2020-Aug-09 14:25 263 3 gusting 6 27.8
2020-Aug-09 14:20 251 1 gusting 5 27.8
2020-Aug-09 14:15 252 0 gusting 4 27.8
2020-Aug-09 14:10 217 1 gusting 5 27.2
2020-Aug-09 14:05 251 2 gusting 6 25.0
2020-Aug-09 14:00 291 0 gusting 4 25.0
2020-Aug-09 13:55 274 3 gusting 7 25.0
2020-Aug-09 13:50 267 2 gusting 5 24.4
2020-Aug-09 13:45 259 2 gusting 6 26.1
2020-Aug-09 13:40 264 1 gusting 4 24.4
2020-Aug-09 13:35 250 2 gusting 5 24.4
2020-Aug-09 13:30 283 4 gusting 6 25.0
2020-Aug-09 13:25 256 2 gusting 6 23.9
2020-Aug-09 13:20 264 1 gusting 6 23.9
2020-Aug-09 13:15 245 1 gusting 5 23.9
2020-Aug-09 13:10 272 2 gusting 5 24.4
2020-Aug-09 13:05 241 23.3
2020-Aug-09 13:00 273 1 gusting 4 23.9
2020-Aug-09 12:55 260 1 gusting 5 24.4
2020-Aug-09 12:50 265 0 gusting 4 22.8
2020-Aug-09 12:45 258 1 gusting 2 23.3
2020-Aug-09 12:40 243 1 gusting 4 23.3
2020-Aug-09 12:35 238 2 gusting 5 23.3
2020-Aug-09 12:30 264 2 gusting 4 23.3
2020-Aug-09 12:25 265 1 gusting 4 22.8
2020-Aug-09 12:20 276 2 gusting 4 22.8
2020-Aug-09 12:15 258 1 gusting 4 22.2
2020-Aug-09 12:10 274 1 gusting 5 22.2
2020-Aug-09 12:05 266 0 gusting 2 22.2
2020-Aug-09 12:00 260 1 gusting 6 22.2
2020-Aug-09 11:55 257 1 gusting 5 22.2
2020-Aug-09 11:45 263 1 gusting 4 21.7
2020-Aug-09 11:40 264 1 gusting 4 21.1
2020-Aug-09 11:35 269 1 gusting 4 21.1
2020-Aug-09 11:30 267 0 gusting 4 21.1
2020-Aug-09 11:25 262 0 gusting 1 20.6
2020-Aug-09 11:20 281 0 gusting 2 20.6
2020-Aug-09 11:15 267 20.6
2020-Aug-09 11:10 267 20.6
2020-Aug-09 11:05 271 0 gusting 1 20.6
2020-Aug-09 11:00 308 20.6
2020-Aug-09 10:55 308 20.6
2020-Aug-09 10:50 308 20.0
2020-Aug-09 10:45 308 20.0
2020-Aug-09 10:40 308 20.0
2020-Aug-09 10:35 308 20.0
2020-Aug-09 10:25 251 20.0
2020-Aug-09 10:20 251 19.4
2020-Aug-09 10:15 251 20.0
2020-Aug-09 10:10 251 19.4
2020-Aug-09 10:05 251 19.4
2020-Aug-09 10:00 251 19.4
2020-Aug-09 09:55 251 19.4
2020-Aug-09 09:50 251 19.4
2020-Aug-09 09:45 251 19.4
2020-Aug-09 09:40 251 19.4
2020-Aug-09 09:35 251 19.4
2020-Aug-09 09:30 251 19.4
2020-Aug-09 09:25 251 18.9
2020-Aug-09 09:20 217 18.9
2020-Aug-09 09:15 217 18.9
2020-Aug-09 09:10 217 18.9
2020-Aug-09 09:05 217 18.9
2020-Aug-09 09:00 217 18.9
2020-Aug-09 08:55 217 18.9
2020-Aug-09 08:50 217 18.9
2020-Aug-09 08:45 217 18.9
2020-Aug-09 08:40 217 18.3
2020-Aug-09 08:30 217 18.3
2020-Aug-09 08:25 217 18.3
2020-Aug-09 08:20 217 18.3
2020-Aug-09 08:15 217 18.3
2020-Aug-09 08:10 217 18.3
2020-Aug-09 08:05 217 18.3
2020-Aug-09 08:00 217 18.3
2020-Aug-09 07:55 217 18.3
2020-Aug-09 07:50 217 18.3
2020-Aug-09 07:45 217 18.3
2020-Aug-09 07:40 217 18.3
2020-Aug-09 07:35 217 18.3
2020-Aug-09 07:30 217 18.3
2020-Aug-09 07:25 217 18.3
2020-Aug-09 07:20 217 18.3
2020-Aug-09 07:15 217 18.3
2020-Aug-09 07:10 217 18.3
2020-Aug-09 07:05 217 18.3
2020-Aug-09 07:00 217 18.3
2020-Aug-09 06:55 217 18.3
2020-Aug-09 06:50 217 18.9
2020-Aug-09 06:45 217 18.9
2020-Aug-09 06:40 217 18.9
2020-Aug-09 06:35 217 18.9
2020-Aug-09 06:30 217 18.9
2020-Aug-09 06:25 217 18.9
2020-Aug-09 06:20 217 18.9
2020-Aug-09 06:15 217 18.9
2020-Aug-09 06:10 217 18.9
2020-Aug-09 06:05 217 18.9
2020-Aug-09 06:00 217 18.9
2020-Aug-09 05:55 217 18.9
2020-Aug-09 05:50 217 18.9
2020-Aug-09 05:45 217 19.4
2020-Aug-09 05:40 217 19.4
2020-Aug-09 05:35 217 19.4
2020-Aug-09 05:30 217 19.4
2020-Aug-09 05:25 217 19.4
2020-Aug-09 05:20 217 19.4
2020-Aug-09 05:15 217 19.4
2020-Aug-09 05:10 217 19.4
2020-Aug-09 05:05 217 19.4
2020-Aug-09 05:00 217 19.4
2020-Aug-09 04:55 217 19.4
2020-Aug-09 04:50 217 19.4
2020-Aug-09 04:45 217 19.4
2020-Aug-09 04:40 217 19.4
2020-Aug-09 04:35 217 19.4
2020-Aug-09 04:30 217 19.4
2020-Aug-09 04:25 217 19.4
2020-Aug-09 04:20 217 19.4
2020-Aug-09 04:15 217 20.0
2020-Aug-09 04:10 217 19.4
2020-Aug-09 04:05 217 19.4
2020-Aug-09 04:00 217 19.4
2020-Aug-09 03:55 217 19.4
2020-Aug-09 03:50 217 19.4
2020-Aug-09 03:45 217 20.0
2020-Aug-09 03:40 217 19.4
2020-Aug-09 03:35 217 19.4
2020-Aug-09 03:30 217 19.4
2020-Aug-09 03:25 217 19.4
2020-Aug-09 03:20 217 19.4
2020-Aug-09 03:15 217 19.4
2020-Aug-09 03:10 217 19.4
2020-Aug-09 03:05 217 19.4
2020-Aug-09 03:00 217 19.4
2020-Aug-09 02:55 217 19.4
2020-Aug-09 02:50 217 19.4
2020-Aug-09 02:45 217 19.4
2020-Aug-09 02:40 217 19.4
2020-Aug-09 02:35 217 19.4
2020-Aug-09 02:30 217 19.4
2020-Aug-09 02:25 217 19.4
2020-Aug-09 02:15 217 19.4
2020-Aug-09 02:10 217 19.4
2020-Aug-09 02:05 217 19.4
2020-Aug-09 02:00 217 18.9
2020-Aug-09 01:55 217 18.9
2020-Aug-09 01:50 217 18.9
2020-Aug-09 01:40 217 19.4
2020-Aug-09 01:35 217 18.9
2020-Aug-09 01:30 217 18.9
2020-Aug-09 01:25 217 19.4
2020-Aug-09 01:20 217 18.9
2020-Aug-09 01:15 217 18.3
2020-Aug-09 01:10 217 18.9
2020-Aug-09 01:05 217 19.4
2020-Aug-09 01:00 217 20.0
2020-Aug-09 00:55 217 21.1
2020-Aug-09 00:50 217 21.1
2020-Aug-09 00:45 217 21.1
2020-Aug-09 00:40 217 21.1
2020-Aug-09 00:35 217 21.1
2020-Aug-09 00:30 217 21.1
2020-Aug-09 00:25 217 21.7
2020-Aug-09 00:20 217 21.7
2020-Aug-09 00:15 217 22.2
2020-Aug-09 00:10 217 0 gusting 1 22.2
2020-Aug-09 00:05 268 22.2
2020-Aug-09 00:00 258 0 gusting 1 22.2
2020-Aug-08 23:55 241 0 gusting 1 22.2
2020-Aug-08 23:50 228 22.2
2020-Aug-08 23:45 185 22.2
2020-Aug-08 23:40 227 0 gusting 4 22.2
2020-Aug-08 23:35 225 0 gusting 1 22.8
2020-Aug-08 23:30 227 1 gusting 4 22.8
2020-Aug-08 23:25 206 0 gusting 2 22.8
2020-Aug-08 23:20 221 22.8
2020-Aug-08 23:10 217 0 gusting 1 22.8
2020-Aug-08 23:05 209 1 gusting 4 22.8
2020-Aug-08 23:00 197 0 gusting 4 21.1
2020-Aug-08 22:55 265 21.1
2020-Aug-08 22:50 265 0 gusting 2 22.2
2020-Aug-08 22:45 236 0 gusting 1 22.2
2020-Aug-08 22:40 236 0 gusting 2 21.7
2020-Aug-08 22:30 220 1 gusting 6 22.8
2020-Aug-08 22:25 203 1 gusting 6 22.8
2020-Aug-08 22:20 250 2 gusting 5 23.3
2020-Aug-08 22:15 240 2 gusting 5 23.3
2020-Aug-08 22:10 245 1 gusting 5 23.3
2020-Aug-08 22:05 251 1 gusting 6 23.3
2020-Aug-08 22:00 252 1 gusting 4 23.3
2020-Aug-08 21:55 249 1 gusting 6 23.3
2020-Aug-08 21:50 236 1 gusting 5 23.9
2020-Aug-08 21:45 224 1 gusting 6 23.3
2020-Aug-08 21:40 261 2 gusting 6 23.3
2020-Aug-08 21:35 262 1 gusting 6 23.3
2020-Aug-08 21:30 246 2 gusting 6 22.8
2020-Aug-08 21:25 223 1 gusting 5 23.9
2020-Aug-08 21:20 240 2 gusting 6 24.4
2020-Aug-08 21:15 232 1 gusting 5 26.1
2020-Aug-08 21:10 241 2 gusting 6 26.7
2020-Aug-08 21:05 237 1 gusting 7 26.7
2020-Aug-08 21:00 239 2 gusting 5 27.2
2020-Aug-08 20:55 197 2 gusting 6 27.2
2020-Aug-08 20:50 202 2 gusting 6 27.8
2020-Aug-08 20:40 265 2 gusting 6 27.8
2020-Aug-08 20:35 230 1 gusting 5 27.8
2020-Aug-08 20:30 240 2 gusting 5 27.8
2020-Aug-08 20:25 268 2 gusting 6 27.2
2020-Aug-08 20:20 200 2 gusting 6 27.2
2020-Aug-08 20:15 251 2 gusting 6 27.2
2020-Aug-08 20:10 203 1 gusting 6 27.2
2020-Aug-08 20:05 258 2 gusting 6 26.7
2020-Aug-08 20:00 213 2 gusting 6 26.7
2020-Aug-08 19:55 237 2 gusting 7 27.2
2020-Aug-08 19:50 250 1 gusting 5 27.8
2020-Aug-08 19:45 211 0 gusting 6 27.8
2020-Aug-08 19:40 241 2 gusting 8 27.8
2020-Aug-08 19:35 207 1 gusting 4 27.8
2020-Aug-08 19:30 251 1 gusting 6 27.8
2020-Aug-08 19:25 256 2 gusting 5 27.8
2020-Aug-08 19:20 222 2 gusting 6 27.8
2020-Aug-08 19:15 262 4 gusting 7 26.7
2020-Aug-08 19:10 206 2 gusting 7 26.7
2020-Aug-08 19:05 229 2 gusting 7 26.7
2020-Aug-08 19:00 209 5 gusting 10 27.8
2020-Aug-08 18:55 258 2 gusting 7 28.9
2020-Aug-08 18:50 262 2 gusting 6 28.9
2020-Aug-08 18:45 240 1 gusting 6 29.4
2020-Aug-08 18:40 232 1 gusting 6 29.4
2020-Aug-08 18:35 232 1 gusting 6 28.9
2020-Aug-08 18:30 240 2 gusting 6 28.9
2020-Aug-08 18:25 208 1 gusting 7 28.9
2020-Aug-08 18:20 210 3 gusting 10 28.9
2020-Aug-08 18:15 228 3 gusting 7 29.4
2020-Aug-08 18:10 247 2 gusting 6 29.4
2020-Aug-08 18:05 227 3 gusting 6 29.4
2020-Aug-08 18:00 255 4 gusting 6 28.9
2020-Aug-08 17:55 204 1 gusting 4 28.3
2020-Aug-08 17:50 221 1 gusting 2 28.3
2020-Aug-08 17:45 189 1 gusting 6 28.3
2020-Aug-08 17:40 224 0 gusting 4 28.9
2020-Aug-08 17:35 251 0 gusting 4 28.9
2020-Aug-08 17:30 250 1 gusting 6 27.2
2020-Aug-08 17:25 062 0 gusting 2 27.2
2020-Aug-08 17:20 047 0 gusting 5 26.7
2020-Aug-08 17:15 207 1 gusting 7 26.7
2020-Aug-08 17:10 181 26.1
2020-Aug-08 17:05 182 1 gusting 7 26.1
2020-Aug-08 17:00 216 1 gusting 5 27.2
2020-Aug-08 16:55 200 4 gusting 7 26.7
2020-Aug-08 16:50 226 0 gusting 7 26.7
2020-Aug-08 16:45 203 2 gusting 7 26.7
2020-Aug-08 16:40 203 2 gusting 6 26.1
2020-Aug-08 16:35 221 1 gusting 7 26.1
2020-Aug-08 16:30 310 2 gusting 6 27.2
2020-Aug-08 16:25 048 1 gusting 7 26.7
2020-Aug-08 16:20 201 2 gusting 7 26.1
2020-Aug-08 16:15 223 1 gusting 7 26.7
2020-Aug-08 16:10 209 1 gusting 7 26.1
2020-Aug-08 16:05 276 1 gusting 7 26.7
2020-Aug-08 16:00 203 2 gusting 7 23.9
2020-Aug-08 15:55 228 1 gusting 8 23.9
2020-Aug-08 15:50 237 2 gusting 6 23.3
2020-Aug-08 15:45 206 23.9
2020-Aug-08 15:40 192 1 gusting 7 25.0
2020-Aug-08 15:35 203 0 gusting 6 25.0
2020-Aug-08 15:30 202 0 gusting 7 25.0
2020-Aug-08 15:25 205 1 gusting 7 24.4
2020-Aug-08 15:20 078 0 gusting 6 24.4
2020-Aug-08 15:15 193 0 gusting 6 24.4
2020-Aug-08 15:10 184 25.0
2020-Aug-08 15:05 150 1 gusting 7 25.0
2020-Aug-08 15:00 199 0 gusting 6 25.0